DAL135 LROP-KJFK
Flight info
| Callsign | DAL135 |
|---|---|
| Flight time | N/A |
| Altitude | 36000 |
| Route | POLU1M POLUN Y88 ANASA DCT PEROT DCT BEDOX DCT ERKIR DCT ETAGO DCT LIRSU DCT REMBA M624 BUB L608 DENUT L610 HEMEL T420 BUZAD L10 DTY DCT SAPCO UN57 TNT UQ4 WAL L10 PENIL UL28 LELDO M145 BAGSO DCT MALOT DCT 54N020W 54N030W 54N040W 53N050W DCT RIKAL N572A TOPPS DCT ENE PARCH4 |
| Aircraft | B764/H-SDE3FGHIM3RWXY/LB1 |
Departure
| Time | 2026-05-05 16:51 |
|---|---|
| Airport | Bucharest Henri Coandă International Airport (LROP) |
Arrival
| Time | N/A |
|---|---|
| Airport | John F. Kennedy International Airport (KJFK) |
| Time | Latitude | Longitude | Altitude | Speed | Heading |
|---|---|---|---|---|---|
| 2026-05-05 16:25 | 44.57088 | 26.08265 | 320 ft | 0 kts | 264° |
| 2026-05-05 16:39 | 44.57090 | 26.08283 | 320 ft | 2 kts | 264° |
| 2026-05-05 16:39 | 44.57091 | 26.08304 | 320 ft | 2 kts | 264° |
| 2026-05-05 16:40 | 44.57093 | 26.08325 | 320 ft | 2 kts | 263° |
| 2026-05-05 16:40 | 44.57093 | 26.08346 | 320 ft | 2 kts | 289° |
| 2026-05-05 16:40 | 44.57085 | 26.08364 | 320 ft | 2 kts | 313° |
| 2026-05-05 16:40 | 44.57074 | 26.08376 | 320 ft | 2 kts | 336° |
| 2026-05-05 16:41 | 44.57064 | 26.08380 | 320 ft | 0 kts | 353° |
| 2026-05-05 16:41 | 44.57058 | 26.08381 | 320 ft | 0 kts | 354° |
| 2026-05-05 16:43 | 44.57061 | 26.08380 | 320 ft | 2 kts | 351° |
| 2026-05-05 16:43 | 44.57114 | 26.08372 | 320 ft | 10 kts | 355° |
| 2026-05-05 16:43 | 44.57194 | 26.08362 | 320 ft | 8 kts | 5° |
| 2026-05-05 16:43 | 44.57231 | 26.08402 | 320 ft | 6 kts | 80° |
| 2026-05-05 16:44 | 44.57243 | 26.08474 | 320 ft | 7 kts | 61° |
| 2026-05-05 16:44 | 44.57283 | 26.08496 | 320 ft | 6 kts | 354° |
| 2026-05-05 16:44 | 44.57337 | 26.08488 | 320 ft | 8 kts | 354° |
| 2026-05-05 16:44 | 44.57401 | 26.08479 | 320 ft | 10 kts | 354° |
| 2026-05-05 16:45 | 44.57478 | 26.08491 | 321 ft | 12 kts | 37° |
| 2026-05-05 16:45 | 44.57506 | 26.08619 | 320 ft | 16 kts | 84° |
| 2026-05-05 16:45 | 44.57519 | 26.08797 | 320 ft | 20 kts | 84° |
| 2026-05-05 16:45 | 44.57536 | 26.09020 | 318 ft | 25 kts | 84° |
| 2026-05-05 16:46 | 44.57556 | 26.09282 | 316 ft | 27 kts | 84° |
| 2026-05-05 16:46 | 44.57576 | 26.09541 | 315 ft | 25 kts | 84° |
| 2026-05-05 16:46 | 44.57595 | 26.09792 | 313 ft | 26 kts | 84° |
| 2026-05-05 16:46 | 44.57615 | 26.10056 | 312 ft | 27 kts | 84° |
| 2026-05-05 16:47 | 44.57635 | 26.10317 | 312 ft | 26 kts | 84° |
| 2026-05-05 16:47 | 44.57654 | 26.10574 | 311 ft | 26 kts | 84° |
| 2026-05-05 16:47 | 44.57673 | 26.10831 | 311 ft | 26 kts | 84° |
| 2026-05-05 16:47 | 44.57693 | 26.11093 | 312 ft | 27 kts | 84° |
| 2026-05-05 16:48 | 44.57713 | 26.11362 | 312 ft | 28 kts | 84° |
| 2026-05-05 16:48 | 44.57734 | 26.11635 | 312 ft | 28 kts | 84° |
| 2026-05-05 16:48 | 44.57756 | 26.11920 | 312 ft | 29 kts | 83° |
| 2026-05-05 16:48 | 44.57778 | 26.12207 | 312 ft | 30 kts | 84° |
| 2026-05-05 16:49 | 44.57800 | 26.12504 | 312 ft | 31 kts | 84° |
| 2026-05-05 16:49 | 44.57822 | 26.12793 | 312 ft | 21 kts | 78° |
| 2026-05-05 16:49 | 44.57893 | 26.12853 | 312 ft | 10 kts | 338° |
| 2026-05-05 16:49 | 44.57952 | 26.12788 | 312 ft | 11 kts | 320° |
| 2026-05-05 16:50 | 44.57988 | 26.12713 | 312 ft | 7 kts | 263° |
| 2026-05-05 16:50 | 44.57985 | 26.12671 | 312 ft | 0 kts | 264° |
| 2026-05-05 16:50 | 44.57982 | 26.12629 | 312 ft | 19 kts | 264° |
| 2026-05-05 16:50 | 44.57946 | 26.12157 | 312 ft | 79 kts | 264° |
| 2026-05-05 16:51 | 44.57867 | 26.11109 | 312 ft | 135 kts | 264° |
| 2026-05-05 16:51 | 44.57747 | 26.09546 | 318 ft | 185 kts | 263° |
| 2026-05-05 16:51 | 44.57588 | 26.07619 | 642 ft | 208 kts | 262° |
| 2026-05-05 16:51 | 44.57356 | 26.05668 | 1489 ft | 203 kts | 257° |
| 2026-05-05 16:52 | 44.57071 | 26.03692 | 1714 ft | 218 kts | 259° |
| 2026-05-05 16:52 | 44.56845 | 26.01473 | 1674 ft | 246 kts | 262° |
| 2026-05-05 16:52 | 44.56645 | 25.98991 | 1871 ft | 264 kts | 264° |
| 2026-05-05 16:52 | 44.56470 | 25.96479 | 2612 ft | 260 kts | 264° |
| 2026-05-05 16:53 | 44.56308 | 25.93964 | 3208 ft | 262 kts | 265° |
| 2026-05-05 16:53 | 44.56151 | 25.91398 | 3806 ft | 264 kts | 265° |
| 2026-05-05 16:53 | 44.55795 | 25.88898 | 4321 ft | 268 kts | 245° |
| 2026-05-05 16:53 | 44.54657 | 25.86856 | 4844 ft | 274 kts | 217° |
| 2026-05-05 16:54 | 44.52909 | 25.85701 | 5369 ft | 280 kts | 198° |
| 2026-05-05 16:54 | 44.51032 | 25.84977 | 5926 ft | 284 kts | 196° |
| 2026-05-05 16:54 | 44.49112 | 25.84258 | 6439 ft | 289 kts | 196° |
| 2026-05-05 16:54 | 44.47178 | 25.83528 | 6974 ft | 292 kts | 196° |
| 2026-05-05 16:55 | 44.45207 | 25.82775 | 7520 ft | 295 kts | 196° |
| 2026-05-05 16:55 | 44.43224 | 25.82001 | 8049 ft | 299 kts | 196° |
| 2026-05-05 16:55 | 44.41211 | 25.81205 | 8598 ft | 302 kts | 196° |
| 2026-05-05 16:55 | 44.39180 | 25.80390 | 9087 ft | 307 kts | 196° |
| 2026-05-05 16:56 | 44.37142 | 25.79565 | 9627 ft | 311 kts | 196° |
| 2026-05-05 16:56 | 44.35026 | 25.78699 | 10201 ft | 313 kts | 196° |
| 2026-05-05 16:56 | 44.32905 | 25.77824 | 10397 ft | 331 kts | 196° |
| 2026-05-05 16:56 | 44.30607 | 25.76874 | 10483 ft | 354 kts | 196° |
| 2026-05-05 16:57 | 44.28230 | 25.75890 | 11001 ft | 361 kts | 196° |
| 2026-05-05 16:57 | 44.25806 | 25.74883 | 11686 ft | 364 kts | 196° |
| 2026-05-05 16:57 | 44.23387 | 25.73814 | 12284 ft | 369 kts | 202° |
| 2026-05-05 16:57 | 44.21182 | 25.72067 | 12945 ft | 370 kts | 220° |
| 2026-05-05 16:58 | 44.19381 | 25.69488 | 13525 ft | 372 kts | 237° |
| 2026-05-05 16:58 | 44.18173 | 25.66324 | 14132 ft | 372 kts | 254° |
| 2026-05-05 16:58 | 44.17600 | 25.62877 | 14726 ft | 371 kts | 267° |
| 2026-05-05 16:58 | 44.17622 | 25.59300 | 15340 ft | 369 kts | 280° |
| 2026-05-05 16:59 | 44.17896 | 25.55745 | 15946 ft | 372 kts | 278° |
| 2026-05-05 16:59 | 44.18124 | 25.52184 | 16559 ft | 375 kts | 278° |
| 2026-05-05 16:59 | 44.18346 | 25.48571 | 17126 ft | 379 kts | 278° |
| 2026-05-05 16:59 | 44.18563 | 25.44892 | 17726 ft | 382 kts | 278° |
| 2026-05-05 17:00 | 44.18775 | 25.41192 | 18313 ft | 385 kts | 278° |
| 2026-05-05 17:00 | 44.18985 | 25.37488 | 18932 ft | 387 kts | 278° |
| 2026-05-05 17:00 | 44.19194 | 25.33747 | 19538 ft | 390 kts | 277° |
| 2026-05-05 17:00 | 44.19401 | 25.30009 | 20130 ft | 392 kts | 277° |
| 2026-05-05 17:01 | 44.19610 | 25.26205 | 20709 ft | 395 kts | 277° |
| 2026-05-05 17:01 | 44.19819 | 25.22371 | 21269 ft | 397 kts | 277° |
| 2026-05-05 17:01 | 44.20027 | 25.18535 | 21836 ft | 399 kts | 277° |
| 2026-05-05 17:01 | 44.20235 | 25.14684 | 22369 ft | 401 kts | 277° |
| 2026-05-05 17:02 | 44.20441 | 25.10840 | 22852 ft | 404 kts | 277° |
| 2026-05-05 17:02 | 44.20649 | 25.06926 | 23358 ft | 406 kts | 277° |
| 2026-05-05 17:02 | 44.20855 | 25.03019 | 23874 ft | 407 kts | 277° |
| 2026-05-05 17:02 | 44.21060 | 24.99118 | 24279 ft | 410 kts | 277° |
| 2026-05-05 17:03 | 44.21268 | 24.95126 | 24724 ft | 412 kts | 277° |
| 2026-05-05 17:03 | 44.21474 | 24.91150 | 25116 ft | 414 kts | 277° |
| 2026-05-05 17:03 | 44.21678 | 24.87179 | 25510 ft | 416 kts | 277° |
| 2026-05-05 17:03 | 44.21884 | 24.83150 | 25880 ft | 419 kts | 277° |
| 2026-05-05 17:04 | 44.22088 | 24.79125 | 26275 ft | 420 kts | 278° |
| 2026-05-05 17:04 | 44.22294 | 24.75034 | 26618 ft | 422 kts | 278° |
| 2026-05-05 17:04 | 44.22496 | 24.71003 | 26925 ft | 425 kts | 278° |
| 2026-05-05 17:04 | 44.22699 | 24.66907 | 27299 ft | 425 kts | 278° |
| 2026-05-05 17:05 | 44.22902 | 24.62802 | 27608 ft | 427 kts | 278° |
| 2026-05-05 17:05 | 44.23105 | 24.58648 | 27916 ft | 429 kts | 278° |
| 2026-05-05 17:05 | 44.23307 | 24.54490 | 28209 ft | 431 kts | 278° |
| 2026-05-05 17:05 | 44.23507 | 24.50346 | 28476 ft | 433 kts | 278° |
| 2026-05-05 17:06 | 44.23705 | 24.46199 | 28779 ft | 433 kts | 278° |
| 2026-05-05 17:06 | 44.23906 | 24.41979 | 28995 ft | 436 kts | 278° |
| 2026-05-05 17:06 | 44.24103 | 24.37783 | 29305 ft | 436 kts | 278° |
| 2026-05-05 17:06 | 44.24301 | 24.33564 | 29502 ft | 438 kts | 277° |
| 2026-05-05 17:07 | 44.24498 | 24.29317 | 29727 ft | 440 kts | 277° |
| 2026-05-05 17:07 | 44.24693 | 24.25067 | 29981 ft | 441 kts | 277° |
| 2026-05-05 17:07 | 44.24887 | 24.20828 | 30162 ft | 443 kts | 277° |
| 2026-05-05 17:07 | 44.25080 | 24.16538 | 30402 ft | 443 kts | 277° |
| 2026-05-05 17:08 | 44.25273 | 24.12244 | 30616 ft | 444 kts | 277° |
| 2026-05-05 17:08 | 44.25463 | 24.07977 | 30910 ft | 443 kts | 277° |
| 2026-05-05 17:08 | 44.25650 | 24.03709 | 31234 ft | 441 kts | 277° |
| 2026-05-05 17:08 | 44.25836 | 23.99467 | 31552 ft | 440 kts | 277° |
| 2026-05-05 17:09 | 44.26019 | 23.95255 | 31794 ft | 439 kts | 277° |
| 2026-05-05 17:09 | 44.26202 | 23.90995 | 32101 ft | 437 kts | 277° |
| 2026-05-05 17:09 | 44.26379 | 23.86831 | 32368 ft | 436 kts | 277° |
| 2026-05-05 17:09 | 44.26557 | 23.82627 | 32634 ft | 435 kts | 277° |
| 2026-05-05 17:10 | 44.26735 | 23.78387 | 32834 ft | 435 kts | 277° |
| 2026-05-05 17:10 | 44.26908 | 23.74213 | 33088 ft | 434 kts | 277° |
| 2026-05-05 17:10 | 44.27079 | 23.70049 | 33360 ft | 432 kts | 277° |
| 2026-05-05 17:10 | 44.27249 | 23.65877 | 33529 ft | 433 kts | 277° |
| 2026-05-05 17:11 | 44.27418 | 23.61712 | 33752 ft | 431 kts | 277° |
| 2026-05-05 17:11 | 44.27584 | 23.57551 | 33992 ft | 430 kts | 277° |
| 2026-05-05 17:11 | 44.27748 | 23.53418 | 34194 ft | 429 kts | 277° |
| 2026-05-05 17:11 | 44.27911 | 23.49259 | 34412 ft | 427 kts | 277° |
| 2026-05-05 17:12 | 44.28072 | 23.45144 | 34564 ft | 428 kts | 277° |
| 2026-05-05 17:12 | 44.28231 | 23.41039 | 34694 ft | 428 kts | 277° |
| 2026-05-05 17:12 | 44.28389 | 23.36903 | 34817 ft | 428 kts | 277° |
| 2026-05-05 17:12 | 44.28546 | 23.32752 | 34927 ft | 428 kts | 276° |
| 2026-05-05 17:13 | 44.28702 | 23.28599 | 35057 ft | 427 kts | 276° |
| 2026-05-05 17:13 | 44.28856 | 23.24453 | 35192 ft | 427 kts | 276° |
| 2026-05-05 17:13 | 44.29157 | 23.16237 | 35393 ft | 427 kts | 276° |
| 2026-05-05 17:14 | 44.29453 | 23.07980 | 35630 ft | 426 kts | 276° |
| 2026-05-05 17:14 | 44.29598 | 23.03871 | 35739 ft | 426 kts | 276° |
| 2026-05-05 17:14 | 44.29741 | 22.99787 | 35836 ft | 426 kts | 276° |
| 2026-05-05 17:15 | 44.29884 | 22.95645 | 35951 ft | 422 kts | 276° |